createdAt,value
2018-12-14T00:01:04.159Z,17.23
2018-12-14T00:03:32.362Z,17.87
2018-12-14T00:06:00.437Z,14.23
2018-12-14T00:08:28.497Z,18.37
2018-12-14T00:10:56.540Z,20.00
2018-12-14T00:13:24.574Z,18.07
2018-12-14T00:15:52.662Z,19.35
2018-12-14T00:18:20.724Z,21.93
2018-12-14T00:20:48.818Z,13.95
2018-12-14T00:23:17.461Z,20.25
2018-12-14T00:25:45.626Z,17.77
2018-12-14T00:28:13.669Z,19.92
2018-12-14T00:30:41.724Z,19.87
2018-12-14T00:33:09.766Z,21.42
2018-12-14T00:35:37.868Z,19.37
2018-12-14T00:38:06.299Z,14.40
2018-12-14T00:40:34.334Z,16.50
2018-12-14T00:43:02.395Z,16.70
2018-12-14T00:45:30.516Z,15.70
2018-12-14T00:47:58.543Z,17.82
2018-12-14T00:50:26.870Z,17.75
2018-12-14T00:52:54.898Z,19.10
2018-12-14T00:55:22.940Z,16.40
2018-12-14T00:57:50.967Z,14.83
2018-12-14T01:00:19.978Z,15.15
2018-12-14T01:02:48.078Z,17.48
2018-12-14T01:05:16.109Z,15.83
2018-12-14T01:07:44.145Z,16.80
2018-12-14T01:10:13.571Z,19.30
2018-12-14T01:12:41.770Z,23.05
2018-12-14T01:15:09.793Z,20.50
2018-12-14T01:17:37.864Z,20.45
2018-12-14T01:20:07.572Z,17.45
2018-12-14T01:22:35.695Z,16.12
2018-12-14T01:25:03.820Z,22.45
2018-12-14T01:27:32.173Z,21.87
2018-12-14T01:30:00.200Z,17.17
2018-12-14T01:32:28.303Z,17.60
2018-12-14T01:34:56.337Z,19.87
2018-12-14T01:37:24.365Z,22.07
2018-12-14T01:39:52.494Z,21.68
2018-12-14T01:42:20.595Z,21.97
2018-12-14T01:44:48.625Z,22.70
2018-12-14T01:47:16.727Z,23.27
2018-12-14T01:49:44.870Z,18.90
2018-12-14T01:52:13.001Z,17.92
2018-12-14T01:57:22.613Z,17.35
2018-12-14T01:59:50.675Z,22.73
2018-12-14T02:02:18.726Z,21.33
2018-12-14T02:04:46.758Z,21.05
2018-12-14T02:07:14.852Z,20.10
2018-12-14T02:09:43.021Z,17.57
2018-12-14T02:12:11.548Z,18.82
2018-12-14T02:14:39.794Z,18.20
2018-12-14T02:17:07.835Z,20.05
2018-12-14T02:19:35.926Z,17.57
2018-12-14T02:22:04.109Z,16.82
2018-12-14T02:24:32.154Z,18.92
2018-12-14T02:27:00.263Z,19.17
2018-12-14T02:29:28.298Z,18.23
2018-12-14T02:31:56.355Z,17.90
2018-12-14T02:34:24.382Z,18.20
2018-12-14T02:36:52.501Z,22.52
2018-12-14T02:39:20.545Z,19.23
2018-12-14T02:41:48.735Z,20.15
2018-12-14T02:44:16.903Z,20.70
2018-12-14T02:46:45.164Z,21.73
2018-12-14T02:49:13.205Z,21.05
2018-12-14T02:51:41.225Z,20.85
2018-12-14T02:54:09.260Z,18.57
2018-12-14T02:56:37.298Z,22.25
2018-12-14T02:59:05.388Z,16.85
2018-12-14T03:01:33.663Z,23.98
2018-12-14T03:04:01.776Z,21.73
2018-12-14T03:06:29.827Z,21.48
2018-12-14T03:08:58.016Z,24.43
2018-12-14T03:11:26.166Z,22.00
2018-12-14T03:13:54.410Z,19.45
2018-12-14T03:16:22.608Z,20.48
2018-12-14T03:18:50.637Z,21.20
2018-12-14T03:21:18.838Z,22.48
2018-12-14T03:23:46.970Z,22.73
2018-12-14T03:26:15.219Z,25.12
2018-12-14T03:28:43.265Z,22.45
2018-12-14T03:31:11.328Z,20.08
2018-12-14T03:33:39.448Z,18.90
2018-12-14T03:36:07.507Z,20.10
2018-12-14T03:38:35.574Z,21.62
2018-12-14T03:41:03.671Z,18.48
2018-12-14T03:43:31.809Z,23.32
2018-12-14T03:45:59.840Z,23.15
2018-12-14T03:48:27.882Z,20.50
2018-12-14T03:50:56.031Z,25.32
2018-12-14T03:53:24.208Z,26.75
2018-12-14T03:55:52.316Z,22.10
2018-12-14T04:01:02.147Z,26.50
2018-12-14T04:03:30.243Z,25.00
2018-12-14T04:05:58.368Z,25.77
2018-12-14T04:08:26.521Z,20.75
2018-12-14T04:10:54.602Z,24.10
2018-12-14T04:16:04.251Z,23.52
2018-12-14T04:18:32.308Z,25.30
2018-12-14T04:21:00.363Z,29.57
2018-12-14T04:23:28.726Z,30.25
2018-12-14T04:25:56.832Z,23.67
2018-12-14T04:28:24.974Z,22.07
2018-12-14T04:30:53.147Z,23.12
2018-12-14T04:33:21.328Z,24.98
2018-12-14T04:35:49.438Z,22.73
2018-12-14T04:38:17.565Z,22.95
2018-12-14T04:40:45.760Z,18.55
2018-12-14T04:43:13.929Z,18.73
2018-12-14T04:45:42.065Z,20.30
2018-12-14T04:48:10.178Z,23.70
2018-12-14T04:50:38.239Z,26.60
2018-12-14T04:53:06.319Z,19.02
2018-12-14T04:55:34.543Z,24.15
2018-12-14T05:00:44.985Z,22.82
2018-12-14T05:03:13.025Z,24.55
2018-12-14T05:05:41.103Z,23.18
2018-12-14T05:08:09.628Z,19.27
2018-12-14T05:10:37.764Z,24.98
2018-12-14T05:13:06.191Z,27.20
2018-12-14T05:15:34.634Z,22.30
2018-12-14T05:18:02.906Z,21.95
2018-12-14T05:20:31.043Z,26.50
2018-12-14T05:22:59.391Z,26.52
2018-12-14T05:25:27.453Z,28.38
2018-12-14T05:27:55.534Z,27.22
2018-12-14T05:30:23.772Z,25.37
2018-12-14T05:32:52.004Z,22.32
2018-12-14T05:35:20.191Z,25.40
2018-12-14T05:37:48.269Z,21.37
2018-12-14T05:40:16.345Z,24.35
2018-12-14T05:42:44.514Z,22.45
2018-12-14T05:45:12.826Z,23.40
2018-12-14T05:47:41.922Z,22.73
2018-12-14T05:50:10.062Z,23.85
2018-12-14T05:52:38.154Z,26.45
2018-12-14T05:55:06.373Z,21.77
2018-12-14T05:57:34.428Z,23.25
2018-12-14T06:00:02.777Z,25.35
2018-12-14T06:02:30.937Z,19.48
2018-12-14T06:04:59.127Z,23.12
2018-12-14T06:07:27.185Z,23.00
2018-12-14T06:09:55.347Z,22.60
2018-12-14T06:12:23.718Z,22.75
2018-12-14T06:14:51.893Z,22.30
2018-12-14T06:17:19.976Z,25.27
2018-12-14T06:19:48.148Z,22.15
2018-12-14T06:22:16.292Z,21.20
2018-12-14T06:24:44.949Z,22.37
2018-12-14T06:27:13.117Z,19.15
2018-12-14T06:29:41.277Z,21.37
2018-12-14T06:32:09.653Z,22.50
2018-12-14T06:34:37.857Z,24.12
2018-12-14T06:37:06.183Z,25.15
2018-12-14T06:39:44.270Z,21.52
2018-12-14T06:42:17.219Z,19.98
2018-12-14T06:44:45.539Z,25.52
2018-12-14T06:47:13.835Z,20.08
2018-12-14T06:49:41.919Z,21.33
2018-12-14T06:52:10.032Z,22.45
2018-12-14T06:54:38.079Z,21.82
2018-12-14T06:57:06.242Z,18.67
2018-12-14T06:59:34.379Z,25.85
2018-12-14T07:02:02.706Z,20.43
2018-12-14T07:04:30.870Z,19.85
2018-12-14T07:07:04.064Z,21.77
2018-12-14T07:09:29.265Z,23.42
2018-12-14T07:11:57.679Z,17.90
2018-12-14T07:14:26.184Z,18.50
2018-12-14T07:16:54.370Z,24.50
2018-12-14T07:19:22.601Z,23.42
2018-12-14T07:21:50.796Z,17.23
2018-12-14T07:24:18.924Z,18.80
2018-12-14T07:26:47.354Z,18.52
2018-12-14T07:29:15.476Z,19.82
2018-12-14T07:31:43.623Z,19.07
2018-12-14T07:34:11.864Z,19.80
2018-12-14T07:36:40.000Z,21.73
2018-12-14T07:39:08.093Z,26.97
2018-12-14T07:41:36.202Z,22.62
2018-12-14T07:44:04.384Z,20.97
2018-12-14T07:46:32.509Z,21.48
2018-12-14T07:49:00.724Z,26.35
2018-12-14T07:51:28.902Z,27.62
2018-12-14T07:53:57.059Z,20.97
2018-12-14T07:56:25.190Z,22.25
2018-12-14T07:58:53.466Z,22.32
2018-12-14T08:01:21.899Z,21.30
2018-12-14T08:03:50.015Z,26.25
2018-12-14T08:06:18.170Z,24.15
2018-12-14T08:08:46.283Z,23.65
2018-12-14T08:11:14.370Z,14.83
2018-12-14T08:13:42.578Z,22.40
2018-12-14T08:16:10.728Z,23.83
2018-12-14T08:18:38.926Z,30.50
2018-12-14T08:21:07.429Z,22.73
2018-12-14T08:23:35.565Z,24.72
2018-12-14T08:26:03.710Z,22.58
2018-12-14T08:28:31.778Z,20.77
2018-12-14T08:30:59.829Z,22.62
2018-12-14T08:33:27.952Z,23.77
2018-12-14T08:35:56.158Z,23.40
2018-12-14T08:38:24.366Z,23.15
2018-12-14T08:40:52.472Z,29.60
2018-12-14T08:43:20.524Z,28.23
2018-12-14T08:45:48.571Z,27.22
2018-12-14T08:48:16.750Z,27.93
2018-12-14T08:50:44.892Z,37.05
2018-12-14T08:53:13.023Z,27.87
2018-12-14T08:55:41.115Z,23.85
2018-12-14T08:58:09.197Z,24.60
2018-12-14T09:00:37.303Z,25.60
2018-12-14T09:03:05.592Z,27.25
2018-12-14T09:05:33.645Z,23.45
2018-12-14T09:08:01.745Z,24.43
2018-12-14T09:10:29.822Z,23.47
2018-12-14T09:12:57.887Z,24.45
2018-12-14T09:15:25.937Z,27.55
2018-12-14T09:17:53.986Z,31.85
2018-12-14T09:20:22.179Z,23.67
2018-12-14T09:22:50.291Z,22.90
2018-12-14T09:25:18.426Z,23.05
2018-12-14T09:27:46.580Z,25.55
2018-12-14T09:30:14.674Z,23.62
2018-12-14T09:32:42.734Z,21.60
2018-12-14T09:35:10.787Z,19.85
2018-12-14T09:37:38.894Z,22.02
2018-12-14T09:40:07.002Z,24.57
2018-12-14T09:42:35.062Z,22.40
2018-12-14T09:45:03.225Z,27.75
2018-12-14T09:47:31.337Z,28.90
2018-12-14T09:50:00.503Z,22.95
2018-12-14T09:52:28.594Z,22.87
2018-12-14T09:54:56.617Z,23.32
2018-12-14T09:57:24.771Z,22.85
2018-12-14T09:59:52.850Z,22.07
2018-12-14T10:02:21.940Z,20.20
2018-12-14T10:04:49.967Z,19.10
2018-12-14T10:07:18.085Z,19.87
2018-12-14T10:09:46.145Z,23.45
2018-12-14T10:12:14.311Z,21.45
2018-12-14T10:14:42.406Z,28.27
2018-12-14T10:17:10.450Z,21.52
2018-12-14T10:19:38.605Z,23.25
2018-12-14T10:22:06.796Z,25.32
2018-12-14T10:24:34.959Z,22.73
2018-12-14T10:27:03.137Z,23.30
2018-12-14T10:29:31.341Z,24.10
2018-12-14T10:31:59.521Z,21.82
2018-12-14T10:34:27.683Z,21.97
2018-12-14T10:36:55.742Z,28.32
2018-12-14T10:39:23.962Z,28.85
2018-12-14T10:41:52.826Z,30.25
2018-12-14T10:44:20.941Z,28.05
2018-12-14T10:46:49.139Z,24.57
2018-12-14T10:49:17.265Z,29.30
2018-12-14T10:51:45.614Z,26.17
2018-12-14T10:54:13.688Z,26.48
2018-12-14T10:56:41.882Z,23.73
2018-12-14T10:59:10.016Z,27.42
2018-12-14T11:01:43.460Z,28.00
2018-12-14T11:04:11.517Z,26.07
2018-12-14T11:06:40.076Z,32.58
2018-12-14T11:09:08.269Z,31.93
2018-12-14T11:11:36.423Z,30.08
2018-12-14T11:14:04.542Z,38.67
2018-12-14T11:16:32.723Z,37.00
2018-12-14T11:19:00.963Z,30.35
2018-12-14T11:21:29.073Z,36.65
2018-12-14T11:23:57.213Z,34.88
2018-12-14T11:26:25.315Z,33.63
2018-12-14T11:28:53.456Z,33.63
2018-12-14T11:31:21.634Z,30.90
2018-12-14T11:33:49.746Z,34.03
2018-12-14T11:36:17.818Z,31.90
2018-12-14T11:38:45.879Z,33.23
2018-12-14T11:41:18.469Z,33.10
2018-12-14T11:43:44.142Z,33.88
2018-12-14T11:46:12.349Z,35.45
2018-12-14T11:48:40.453Z,39.83
2018-12-14T11:51:10.067Z,34.33
2018-12-14T11:53:38.178Z,35.68
2018-12-14T11:56:06.365Z,32.55
2018-12-14T11:58:34.475Z,33.38
2018-12-14T12:01:02.651Z,29.15
2018-12-14T12:03:30.812Z,32.55
2018-12-14T12:05:58.977Z,31.57
2018-12-14T12:08:27.068Z,29.85
2018-12-14T12:10:55.175Z,36.00
2018-12-14T12:13:23.242Z,31.55
2018-12-14T12:15:51.314Z,33.90
2018-12-14T12:18:19.543Z,29.82
2018-12-14T12:20:47.630Z,29.72
2018-12-14T12:23:15.804Z,30.50
2018-12-14T12:25:43.983Z,36.60
2018-12-14T12:28:12.100Z,29.55
2018-12-14T12:30:40.155Z,33.53
2018-12-14T12:33:08.274Z,37.17
2018-12-14T12:35:36.336Z,31.07
2018-12-14T12:38:04.450Z,32.35
2018-12-14T12:40:32.517Z,26.17
2018-12-14T12:43:00.677Z,30.50
2018-12-14T12:45:28.972Z,35.98
2018-12-14T12:47:57.133Z,32.10
2018-12-14T12:50:25.212Z,30.37
2018-12-14T12:52:53.503Z,29.30
2018-12-14T12:55:22.794Z,33.98
2018-12-14T12:57:50.874Z,32.03
2018-12-14T13:00:18.982Z,31.15
2018-12-14T13:02:47.027Z,30.60
2018-12-14T13:05:15.170Z,40.88
2018-12-14T13:07:43.246Z,28.70
2018-12-14T13:10:11.318Z,32.35
2018-12-14T13:12:39.380Z,28.95
2018-12-14T13:15:07.841Z,31.25
2018-12-14T13:17:35.972Z,29.52
2018-12-14T13:20:04.074Z,30.82
2018-12-14T13:22:32.133Z,27.32
2018-12-14T13:25:00.195Z,22.95
2018-12-14T13:27:28.316Z,22.40
2018-12-14T13:29:56.382Z,26.70
2018-12-14T13:32:24.434Z,29.80
2018-12-14T13:34:52.523Z,26.05
2018-12-14T13:37:20.642Z,21.55
2018-12-14T13:39:48.733Z,23.73
2018-12-14T13:42:16.982Z,20.15
2018-12-14T13:44:46.712Z,22.65
2018-12-14T13:47:15.153Z,21.23
2018-12-14T13:49:43.509Z,25.55
2018-12-14T13:52:11.702Z,21.05
2018-12-14T13:54:39.833Z,22.22
2018-12-14T13:57:07.947Z,20.10
2018-12-14T13:59:36.025Z,19.48
2018-12-14T14:02:04.089Z,18.45
2018-12-14T14:04:32.151Z,21.52
2018-12-14T14:07:00.209Z,19.48
2018-12-14T14:09:28.608Z,15.58
2018-12-14T14:11:56.705Z,21.07
2018-12-14T14:14:24.758Z,19.10
2018-12-14T14:16:53.167Z,21.55
2018-12-14T14:19:21.864Z,20.62
2018-12-14T14:21:50.000Z,18.75
2018-12-14T14:24:18.031Z,26.65
2018-12-14T14:26:46.148Z,23.22
2018-12-14T14:29:14.191Z,17.82
2018-12-14T14:31:42.542Z,19.17
2018-12-14T14:34:10.576Z,15.38
2018-12-14T14:36:38.614Z,18.85
2018-12-14T14:39:07.256Z,20.90
2018-12-14T14:41:35.365Z,17.67
2018-12-14T14:44:03.426Z,17.45
2018-12-14T14:46:31.626Z,20.45
2018-12-14T14:48:59.737Z,19.07
2018-12-14T14:51:28.077Z,19.32
2018-12-14T14:53:56.134Z,16.62
2018-12-14T14:56:24.281Z,20.43
2018-12-14T14:58:52.768Z,19.40
2018-12-14T15:01:20.796Z,19.67
2018-12-14T15:03:48.939Z,25.35
2018-12-14T15:06:17.200Z,20.32
2018-12-14T15:08:45.319Z,25.10
2018-12-14T15:11:13.365Z,21.48
2018-12-14T15:13:41.410Z,19.75
2018-12-14T15:16:09.524Z,16.87
2018-12-14T15:18:37.566Z,18.90
2018-12-14T15:21:05.590Z,19.15
2018-12-14T15:23:33.707Z,19.98
2018-12-14T15:26:03.150Z,20.80
2018-12-14T15:28:31.271Z,24.35
2018-12-14T15:30:59.386Z,16.70
2018-12-14T15:33:27.486Z,20.55
2018-12-14T15:35:56.525Z,17.65
2018-12-14T15:38:24.587Z,22.25
2018-12-14T15:40:52.712Z,23.10
2018-12-14T15:43:21.523Z,22.10
2018-12-14T15:45:50.166Z,20.75
2018-12-14T15:48:18.762Z,20.77
2018-12-14T15:50:47.314Z,38.92
2018-12-14T15:53:15.968Z,22.93
2018-12-14T15:55:44.361Z,19.42
2018-12-14T15:58:13.284Z,19.87
2018-12-14T16:00:41.782Z,21.33
2018-12-14T16:03:10.408Z,21.85
2018-12-14T16:05:39.167Z,20.68
2018-12-14T16:08:07.562Z,21.40
2018-12-14T16:10:35.691Z,18.92
2018-12-14T16:13:03.885Z,21.23
2018-12-14T16:15:32.081Z,30.82
2018-12-14T16:18:01.491Z,19.12
2018-12-14T16:20:29.603Z,24.92
2018-12-14T16:22:57.750Z,20.77
2018-12-14T16:25:25.966Z,21.42
2018-12-14T16:27:54.134Z,20.30
2018-12-14T16:30:22.236Z,24.32
2018-12-14T16:32:50.382Z,20.12
2018-12-14T16:35:18.472Z,17.70
2018-12-14T16:37:46.614Z,19.70
2018-12-14T16:40:14.744Z,20.10
2018-12-14T16:42:42.827Z,20.77
2018-12-14T16:45:11.354Z,22.13
2018-12-14T16:47:39.437Z,19.10
2018-12-14T16:50:07.613Z,25.10
2018-12-14T16:52:35.754Z,20.08
2018-12-14T16:55:03.966Z,25.77
2018-12-14T16:57:32.150Z,29.87
2018-12-14T17:00:00.370Z,23.00
2018-12-14T17:02:28.590Z,19.05
2018-12-14T17:04:56.628Z,24.05
2018-12-14T17:07:24.981Z,20.45
2018-12-14T17:09:53.046Z,22.60
2018-12-14T17:12:21.154Z,23.87
2018-12-14T17:14:50.290Z,25.17
2018-12-14T17:17:18.325Z,24.30
2018-12-14T17:19:46.419Z,23.70
2018-12-14T17:22:14.484Z,27.30
2018-12-14T17:24:42.604Z,28.55
2018-12-14T17:27:10.821Z,26.60
2018-12-14T17:29:38.913Z,24.50
2018-12-14T17:32:06.965Z,21.30
2018-12-14T17:34:35.758Z,23.07
2018-12-14T17:37:03.932Z,19.52
2018-12-14T17:39:32.713Z,27.25
2018-12-14T17:42:00.895Z,26.40
2018-12-14T17:44:29.018Z,20.32
2018-12-14T17:46:57.165Z,26.15
2018-12-14T17:49:25.207Z,25.65
2018-12-14T17:51:53.418Z,23.90
2018-12-14T17:54:21.678Z,24.60
2018-12-14T17:56:49.756Z,24.32
2018-12-14T17:59:17.929Z,20.37
2018-12-14T18:01:46.066Z,23.83
2018-12-14T18:04:14.151Z,25.82
2018-12-14T18:06:42.259Z,26.33
2018-12-14T18:09:10.450Z,30.52
2018-12-14T18:11:38.501Z,26.85
2018-12-14T18:14:06.789Z,34.50
2018-12-14T18:16:35.115Z,25.37
2018-12-14T18:19:03.245Z,23.70
2018-12-14T18:21:31.587Z,30.27
2018-12-14T18:23:59.713Z,25.27
2018-12-14T18:26:27.778Z,25.80
2018-12-14T18:28:55.879Z,20.20
2018-12-14T18:31:23.941Z,28.17
2018-12-14T18:33:52.037Z,26.95
2018-12-14T18:36:20.080Z,28.40
2018-12-14T18:38:48.181Z,25.77
2018-12-14T18:41:16.317Z,29.27
2018-12-14T18:43:44.530Z,27.05
2018-12-14T18:46:12.642Z,28.02
2018-12-14T18:48:40.951Z,27.17
2018-12-14T18:51:09.148Z,24.82
2018-12-14T18:53:37.276Z,26.80
2018-12-14T18:56:05.378Z,28.50
2018-12-14T18:58:33.436Z,28.98
2018-12-14T19:01:01.782Z,28.23
2018-12-14T19:03:31.308Z,25.27
2018-12-14T19:05:59.346Z,23.50
2018-12-14T19:08:27.406Z,30.48
2018-12-14T19:10:55.519Z,28.55
2018-12-14T19:13:23.584Z,27.17
2018-12-14T19:15:52.184Z,26.75
2018-12-14T19:18:20.288Z,27.93
2018-12-14T19:20:48.316Z,26.48
2018-12-14T19:23:19.528Z,28.40
2018-12-14T19:25:46.503Z,22.95
2018-12-14T19:28:14.538Z,33.70
2018-12-14T19:30:42.695Z,23.95
2018-12-14T19:33:10.858Z,25.40
2018-12-14T19:35:38.913Z,26.30
2018-12-14T19:38:07.016Z,29.05
2018-12-14T19:40:35.060Z,34.05
2018-12-14T19:43:04.643Z,30.97
2018-12-14T19:45:32.806Z,28.92
2018-12-14T19:48:00.855Z,29.90
2018-12-14T19:50:28.981Z,28.40
2018-12-14T19:52:57.019Z,29.18
2018-12-14T19:55:25.201Z,30.72
2018-12-14T19:57:54.432Z,29.37
2018-12-14T20:00:22.669Z,33.83
2018-12-14T20:02:50.790Z,30.20
2018-12-14T20:05:19.130Z,32.63
2018-12-14T20:07:47.177Z,29.02
2018-12-14T20:10:15.289Z,32.40
2018-12-14T20:12:43.331Z,28.60
2018-12-14T20:15:11.433Z,28.25
2018-12-14T20:17:39.605Z,25.60
2018-12-14T20:20:08.133Z,28.70
2018-12-14T20:22:36.187Z,28.87
2018-12-14T20:25:04.632Z,25.82
2018-12-14T20:27:32.754Z,28.47
2018-12-14T20:30:01.805Z,26.00
2018-12-14T20:35:11.796Z,26.37
2018-12-14T20:37:39.947Z,23.65
2018-12-14T20:40:08.151Z,20.45
2018-12-14T20:42:36.306Z,23.00
2018-12-14T20:45:04.986Z,26.37
2018-12-14T20:47:33.146Z,24.35
2018-12-14T20:50:01.283Z,26.50
2018-12-14T20:52:29.553Z,33.75
2018-12-14T20:54:57.688Z,21.40
2018-12-14T20:57:25.779Z,22.17
2018-12-14T20:59:53.858Z,25.10
2018-12-14T21:02:21.964Z,26.97
2018-12-14T21:04:50.015Z,23.52
2018-12-14T21:07:18.070Z,27.48
2018-12-14T21:09:46.139Z,24.75
2018-12-14T21:12:14.231Z,22.75
2018-12-14T21:14:42.284Z,24.98
2018-12-14T21:17:10.545Z,25.37
2018-12-14T21:19:38.706Z,27.32
2018-12-14T21:22:11.734Z,24.98
2018-12-14T21:24:39.890Z,27.02
2018-12-14T21:27:08.030Z,25.62
2018-12-14T21:29:36.087Z,24.75
2018-12-14T21:32:04.243Z,23.00
2018-12-14T21:34:32.286Z,23.70
2018-12-14T21:37:00.359Z,23.27
2018-12-14T21:39:28.397Z,28.47
2018-12-14T21:41:56.577Z,22.13
2018-12-14T21:44:24.678Z,25.37
2018-12-14T21:46:52.793Z,24.07
2018-12-14T21:49:20.906Z,24.45
2018-12-14T21:51:49.486Z,23.20
2018-12-14T21:54:17.553Z,24.87
2018-12-14T21:56:45.624Z,24.92
2018-12-14T21:59:13.686Z,27.00
2018-12-14T22:01:41.802Z,25.25
2018-12-14T22:04:09.921Z,27.58
2018-12-14T22:06:38.313Z,24.25
2018-12-14T22:09:09.077Z,27.50
2018-12-14T22:11:37.316Z,23.95
2018-12-14T22:14:05.507Z,27.42
2018-12-14T22:16:39.135Z,28.30
2018-12-14T22:19:03.740Z,24.85
2018-12-14T22:21:31.899Z,29.20
2018-12-14T22:24:00.108Z,23.40
2018-12-14T22:26:28.186Z,25.72
2018-12-14T22:28:56.251Z,25.25
2018-12-14T22:31:24.326Z,27.95
2018-12-14T22:33:52.383Z,32.38
2018-12-14T22:36:20.481Z,18.50
2018-12-14T22:38:48.644Z,29.82
2018-12-14T22:41:17.706Z,28.35
2018-12-14T22:43:45.838Z,22.95
2018-12-14T22:46:13.977Z,26.00
2018-12-14T22:48:42.017Z,31.20
2018-12-14T22:51:10.335Z,27.35
2018-12-14T22:53:38.378Z,28.20
2018-12-14T22:56:06.540Z,22.80
2018-12-14T22:58:34.650Z,25.08
2018-12-14T23:01:02.867Z,26.50
2018-12-14T23:03:30.935Z,26.55
2018-12-14T23:05:59.042Z,27.20
2018-12-14T23:08:27.337Z,27.95
2018-12-14T23:10:55.460Z,28.25
2018-12-14T23:13:23.657Z,28.85
2018-12-14T23:15:51.849Z,24.40
2018-12-14T23:18:20.017Z,27.80
2018-12-14T23:20:48.113Z,29.82
2018-12-14T23:25:57.813Z,24.82
2018-12-14T23:28:25.886Z,29.98
2018-12-14T23:30:53.985Z,27.52
2018-12-14T23:33:22.311Z,31.05
2018-12-14T23:35:50.374Z,29.15
2018-12-14T23:38:18.499Z,26.20
2018-12-14T23:40:46.715Z,25.77
2018-12-14T23:43:14.753Z,29.45
2018-12-14T23:45:42.927Z,27.13
2018-12-14T23:48:11.092Z,32.20
2018-12-14T23:50:39.198Z,30.88
2018-12-14T23:53:07.373Z,31.27
2018-12-14T23:55:35.572Z,28.10
2018-12-14T23:58:03.651Z,29.85
